createdAt,value
2023-05-08T00:01:15.622Z,100726.88
2023-05-08T00:04:20.520Z,100748.63
2023-05-08T00:07:22.712Z,100753.00
2023-05-08T00:10:24.437Z,100738.16
2023-05-08T00:13:26.245Z,100747.66
2023-05-08T00:16:28.214Z,100745.09
2023-05-08T00:19:30.070Z,100740.81
2023-05-08T00:22:31.956Z,100735.63
2023-05-08T00:25:33.702Z,100740.78
2023-05-08T00:28:35.528Z,100734.66
2023-05-08T00:31:37.799Z,100742.50
2023-05-08T00:34:39.678Z,100742.63
2023-05-08T00:37:42.094Z,100738.34
2023-05-08T00:40:43.866Z,100728.75
2023-05-08T00:43:45.679Z,100735.66
2023-05-08T00:46:47.707Z,100724.41
2023-05-08T00:49:49.762Z,100748.75
2023-05-08T00:52:52.240Z,100725.28
2023-05-08T00:55:54.459Z,100720.91
2023-05-08T00:58:57.079Z,100747.84
2023-05-08T01:01:59.742Z,100744.38
2023-05-08T01:05:03.622Z,100734.91
2023-05-08T01:08:05.743Z,100736.66
2023-05-08T01:11:33.856Z,100754.03
2023-05-08T01:15:05.311Z,100758.44
2023-05-08T01:18:25.395Z,100762.81
2023-05-08T01:21:39.696Z,100727.19
2023-05-08T01:25:07.907Z,100759.28
2023-05-08T01:28:28.232Z,100761.06
2023-05-08T01:31:48.776Z,100766.31
2023-05-08T01:34:50.695Z,100763.69
2023-05-08T01:38:00.151Z,100754.22
2023-05-08T01:41:16.809Z,100760.19
2023-05-08T01:44:21.684Z,100747.19
2023-05-08T01:47:29.250Z,100757.66
2023-05-08T01:50:35.768Z,100688.09
2023-05-08T01:53:48.963Z,100763.75
2023-05-08T01:56:55.164Z,100704.59
2023-05-08T02:00:00.620Z,100734.19
2023-05-08T02:03:08.005Z,100724.75
2023-05-08T02:06:13.416Z,100772.56
2023-05-08T02:09:16.520Z,100769.09
2023-05-08T02:12:22.225Z,100752.50
2023-05-08T02:15:27.873Z,100756.94
2023-05-08T02:18:32.088Z,100756.03
2023-05-08T02:21:36.005Z,100774.28
2023-05-08T02:24:38.859Z,100754.31
2023-05-08T02:27:45.524Z,100757.81
2023-05-08T02:30:49.516Z,100766.44
2023-05-08T02:33:52.869Z,100758.66
2023-05-08T02:36:55.651Z,100749.97
2023-05-08T02:39:58.605Z,100716.91
2023-05-08T02:43:00.704Z,100757.81
2023-05-08T02:46:21.136Z,100590.94
2023-05-08T02:49:52.365Z,100768.34
2023-05-08T02:53:08.387Z,100737.03
2023-05-08T02:56:17.723Z,100790.09
2023-05-08T02:59:26.679Z,100794.53
2023-05-08T03:02:35.704Z,100746.63
2023-05-08T03:05:39.689Z,100792.81
2023-05-08T03:08:43.233Z,100785.78
2023-05-08T03:11:48.764Z,100798.00
2023-05-08T03:15:00.985Z,100785.75
2023-05-08T03:18:11.785Z,100761.34
2023-05-08T03:21:18.432Z,100787.47
2023-05-08T03:24:22.946Z,100771.75
2023-05-08T03:27:26.447Z,100755.22
2023-05-08T03:30:28.932Z,100785.72
2023-05-08T03:33:40.910Z,100803.09
2023-05-08T03:36:43.049Z,100781.34
2023-05-08T03:39:45.657Z,100801.41
2023-05-08T03:42:48.492Z,100784.75
2023-05-08T03:45:51.396Z,100787.38
2023-05-08T03:48:54.044Z,100742.19
2023-05-08T03:51:56.546Z,100808.34
2023-05-08T03:54:58.529Z,100803.84
2023-05-08T03:58:11.044Z,100776.78
2023-05-08T04:01:37.452Z,100794.19
2023-05-08T04:04:41.040Z,100791.53
2023-05-08T04:07:57.070Z,100787.16
2023-05-08T04:11:12.200Z,100793.13
2023-05-08T04:14:20.599Z,100800.97
2023-05-08T04:17:34.945Z,100796.50
2023-05-08T04:20:43.587Z,100737.34
2023-05-08T04:23:50.087Z,100800.72
2023-05-08T04:26:52.328Z,100814.66
2023-05-08T04:29:55.031Z,100784.91
2023-05-08T04:32:59.042Z,100798.72
2023-05-08T04:36:04.470Z,100812.59
2023-05-08T04:39:07.381Z,100789.91
2023-05-08T04:42:09.347Z,100808.19
2023-05-08T04:45:12.012Z,100801.81
2023-05-08T04:48:14.284Z,100808.53
2023-05-08T04:51:16.294Z,100801.50
2023-05-08T04:54:18.430Z,100804.91
2023-05-08T04:57:20.294Z,100783.91
2023-05-08T05:00:22.546Z,100799.44
2023-05-08T05:03:25.930Z,100816.56
2023-05-08T05:06:28.239Z,100796.06
2023-05-08T05:09:31.690Z,100811.69
2023-05-08T05:12:33.453Z,100805.28
2023-05-08T05:15:35.554Z,100832.66
2023-05-08T05:18:37.693Z,100807.13
2023-05-08T05:21:39.921Z,100796.59
2023-05-08T05:24:42.306Z,100824.78
2023-05-08T05:27:44.468Z,100809.72
2023-05-08T05:30:49.561Z,100812.47
2023-05-08T05:33:52.699Z,100813.59
2023-05-08T05:36:54.795Z,100808.06
2023-05-08T05:39:57.034Z,100803.13
2023-05-08T05:43:01.363Z,100808.31
2023-05-08T05:46:07.519Z,100812.50
2023-05-08T05:49:12.554Z,100812.63
2023-05-08T05:52:17.911Z,100818.03
2023-05-08T05:55:20.162Z,100815.97
2023-05-08T05:58:23.092Z,100814.22
2023-05-08T06:01:24.976Z,100825.56
2023-05-08T06:04:27.207Z,100833.84
2023-05-08T06:07:29.075Z,100831.22
2023-05-08T06:10:31.353Z,100836.13
2023-05-08T06:13:33.259Z,100821.97
2023-05-08T06:16:35.773Z,100819.59
2023-05-08T06:19:37.712Z,100821.03
2023-05-08T06:22:40.282Z,100830.47
2023-05-08T06:25:44.209Z,100840.53
2023-05-08T06:28:45.968Z,100848.91
2023-05-08T06:31:47.960Z,100856.31
2023-05-08T06:34:49.947Z,100833.41
2023-05-08T06:37:51.721Z,100854.59
2023-05-08T06:40:54.065Z,100861.31
2023-05-08T06:43:55.986Z,100803.28
2023-05-08T06:46:57.758Z,100851.63
2023-05-08T06:50:00.935Z,100851.97
2023-05-08T06:53:02.735Z,100862.22
2023-05-08T06:56:05.938Z,100860.75
2023-05-08T06:59:09.077Z,100858.09
2023-05-08T07:02:11.444Z,100866.06
2023-05-08T07:05:13.468Z,100868.94
2023-05-08T07:08:15.551Z,100865.78
2023-05-08T07:11:17.331Z,100891.81
2023-05-08T07:14:20.323Z,100892.09
2023-05-08T07:17:22.270Z,100867.13
2023-05-08T07:20:24.760Z,100895.19
2023-05-08T07:23:27.581Z,100890.94
2023-05-08T07:26:29.342Z,100892.16
2023-05-08T07:29:31.274Z,100907.75
2023-05-08T07:32:33.052Z,100890.72
2023-05-08T07:35:34.907Z,100895.72
2023-05-08T07:38:37.054Z,100890.34
2023-05-08T07:41:41.105Z,100903.00
2023-05-08T07:44:53.557Z,100896.63
2023-05-08T07:47:58.486Z,100878.28
2023-05-08T07:51:00.427Z,100906.75
2023-05-08T07:54:02.218Z,100878.59
2023-05-08T07:57:03.996Z,100899.44
2023-05-08T08:00:10.910Z,100851.56
2023-05-08T08:03:16.299Z,100901.41
2023-05-08T08:06:18.696Z,100875.09
2023-05-08T08:09:20.846Z,100893.94
2023-05-08T08:12:23.917Z,100884.28
2023-05-08T08:15:28.181Z,100862.03
2023-05-08T08:18:31.129Z,100898.13
2023-05-08T08:21:33.077Z,100892.19
2023-05-08T08:24:36.072Z,100912.97
2023-05-08T08:27:37.866Z,100905.50
2023-05-08T08:30:39.612Z,100894.53
2023-05-08T08:33:41.436Z,100873.66
2023-05-08T08:36:43.231Z,100889.72
2023-05-08T08:39:45.532Z,100859.09
2023-05-08T08:42:47.465Z,100909.13
2023-05-08T08:45:49.271Z,100905.69
2023-05-08T08:48:53.341Z,100923.25
2023-05-08T08:51:59.471Z,100896.78
2023-05-08T08:55:03.803Z,100921.84
2023-05-08T08:58:18.318Z,100921.97
2023-05-08T09:01:22.073Z,100924.34
2023-05-08T09:04:27.270Z,100936.19
2023-05-08T09:07:30.255Z,100911.34
2023-05-08T09:10:32.130Z,100920.53
2023-05-08T09:13:33.998Z,100919.44
2023-05-08T09:16:35.992Z,100911.22
2023-05-08T09:19:38.193Z,100906.41
2023-05-08T09:22:41.003Z,100898.59
2023-05-08T09:25:50.824Z,100919.25
2023-05-08T09:29:12.161Z,100921.88
2023-05-08T09:32:18.768Z,100926.03
2023-05-08T09:35:20.753Z,100889.84
2023-05-08T09:38:37.548Z,100932.53
2023-05-08T09:41:39.859Z,100916.44
2023-05-08T09:44:54.972Z,100894.06
2023-05-08T09:47:57.031Z,100914.31
2023-05-08T09:51:08.052Z,100912.84
2023-05-08T09:54:18.444Z,100899.31
2023-05-08T09:57:20.189Z,100905.66
2023-05-08T10:00:22.344Z,100919.59
2023-05-08T10:03:26.064Z,100889.78
2023-05-08T10:06:29.805Z,100905.28
2023-05-08T10:09:42.730Z,100915.94
2023-05-08T10:12:49.175Z,100911.53
2023-05-08T10:15:54.930Z,100937.69
2023-05-08T10:19:02.408Z,100906.28
2023-05-08T10:22:05.495Z,100910.41
2023-05-08T10:25:16.202Z,100922.09
2023-05-08T10:28:57.789Z,100904.22
2023-05-08T10:32:01.003Z,100919.38
2023-05-08T10:35:04.380Z,100923.50
2023-05-08T10:38:09.008Z,100907.78
2023-05-08T10:41:11.209Z,100915.38
2023-05-08T10:44:13.482Z,100912.75
2023-05-08T10:47:35.826Z,100879.84
2023-05-08T10:50:52.836Z,100931.72
2023-05-08T10:54:02.465Z,100933.63
2023-05-08T10:57:12.210Z,100944.44
2023-05-08T11:00:14.660Z,100931.66
2023-05-08T11:03:30.553Z,100914.94
2023-05-08T11:06:45.943Z,100936.75
2023-05-08T11:09:48.857Z,100890.28
2023-05-08T11:12:51.543Z,100927.19
2023-05-08T11:15:53.406Z,100890.16
2023-05-08T11:19:28.674Z,100946.44
2023-05-08T11:22:31.164Z,100943.53
2023-05-08T11:25:46.132Z,100947.44
2023-05-08T11:28:54.491Z,100964.59
2023-05-08T11:31:56.802Z,100947.13
2023-05-08T11:34:59.231Z,100932.97
2023-05-08T11:38:20.342Z,100932.56
2023-05-08T11:41:24.156Z,100955.44
2023-05-08T11:44:28.379Z,100954.09
2023-05-08T11:47:43.258Z,100956.00
2023-05-08T11:50:45.250Z,100956.25
2023-05-08T11:53:47.539Z,100955.47
2023-05-08T11:56:51.737Z,100949.81
2023-05-08T11:59:53.625Z,100953.66
2023-05-08T12:02:55.567Z,100945.44
2023-05-08T12:05:59.176Z,100954.72
2023-05-08T12:09:02.204Z,100957.66
2023-05-08T12:12:04.295Z,100961.50
2023-05-08T12:15:10.481Z,100952.66
2023-05-08T12:18:13.941Z,100905.91
2023-05-08T12:21:16.233Z,100976.25
2023-05-08T12:24:27.381Z,100953.16
2023-05-08T12:27:31.827Z,100922.31
2023-05-08T12:30:34.015Z,100979.59
2023-05-08T12:33:35.899Z,100974.34
2023-05-08T12:36:38.633Z,100984.94
2023-05-08T12:39:44.726Z,100988.63
2023-05-08T12:43:11.745Z,100968.66
2023-05-08T12:46:14.646Z,100972.72
2023-05-08T12:49:24.757Z,100957.91
2023-05-08T12:52:28.206Z,100999.56
2023-05-08T12:55:32.005Z,100993.84
2023-05-08T12:58:35.940Z,101002.59
2023-05-08T13:01:37.887Z,100984.44
2023-05-08T13:04:39.948Z,100997.56
2023-05-08T13:07:42.081Z,100963.22
2023-05-08T13:10:54.347Z,100983.84
2023-05-08T13:13:56.166Z,100999.66
2023-05-08T13:16:58.013Z,101016.97
2023-05-08T13:20:00.001Z,100982.31
2023-05-08T13:23:02.599Z,101011.91
2023-05-08T13:26:04.682Z,101013.34
2023-05-08T13:29:06.485Z,100996.41
2023-05-08T13:32:08.456Z,101006.97
2023-05-08T13:35:10.553Z,100996.22
2023-05-08T13:38:12.388Z,101003.75
2023-05-08T13:41:14.179Z,100986.69
2023-05-08T13:44:15.985Z,101010.19
2023-05-08T13:47:17.752Z,100955.06
2023-05-08T13:50:21.729Z,101036.28
2023-05-08T13:53:23.569Z,101018.91
2023-05-08T13:56:26.001Z,101015.09
2023-05-08T13:59:27.946Z,101026.03
2023-05-08T14:02:30.071Z,101009.16
2023-05-08T14:05:32.063Z,101019.63
2023-05-08T14:08:35.190Z,101015.09
2023-05-08T14:11:39.227Z,101033.28
2023-05-08T14:14:41.147Z,100988.22
2023-05-08T14:17:43.196Z,101025.84
2023-05-08T14:20:48.976Z,101014.19
2023-05-08T14:23:53.859Z,101035.00
2023-05-08T14:26:55.755Z,101042.38
2023-05-08T14:29:57.984Z,100981.06
2023-05-08T14:33:01.175Z,101036.56
2023-05-08T14:36:03.418Z,101036.69
2023-05-08T14:39:05.310Z,101045.19
2023-05-08T14:42:22.037Z,101049.94
2023-05-08T14:45:25.008Z,101038.03
2023-05-08T14:48:27.595Z,101037.38
2023-05-08T14:51:29.355Z,101043.38
2023-05-08T14:54:31.807Z,101041.16
2023-05-08T14:57:33.876Z,101037.69
2023-05-08T15:00:35.732Z,101054.44
2023-05-08T15:03:37.974Z,101043.59
2023-05-08T15:06:42.700Z,101050.66
2023-05-08T15:09:44.554Z,101057.78
2023-05-08T15:12:46.426Z,101050.69
2023-05-08T15:15:48.401Z,101038.53
2023-05-08T15:18:50.193Z,101051.00
2023-05-08T15:21:51.951Z,101081.41
2023-05-08T15:24:54.127Z,101051.75
2023-05-08T15:27:57.694Z,101060.28
2023-05-08T15:31:03.964Z,101073.50
2023-05-08T15:34:05.765Z,101055.31
2023-05-08T15:37:08.593Z,101065.69
2023-05-08T15:40:11.845Z,101058.81
2023-05-08T15:43:14.564Z,101047.66
2023-05-08T15:46:16.480Z,101049.47
2023-05-08T15:49:18.348Z,100927.03
2023-05-08T15:52:20.273Z,101100.38
2023-05-08T15:55:23.435Z,101035.66
2023-05-08T15:58:25.769Z,101040.25
2023-05-08T16:01:27.558Z,101073.25
2023-05-08T16:04:29.407Z,101052.16
2023-05-08T16:07:31.434Z,101064.16
2023-05-08T16:10:34.171Z,101073.09
2023-05-08T16:13:36.092Z,101051.56
2023-05-08T16:16:39.535Z,101040.25
2023-05-08T16:19:41.365Z,101069.72
2023-05-08T16:22:43.117Z,101067.81
2023-05-08T16:25:44.836Z,101074.09
2023-05-08T16:28:46.539Z,101087.25
2023-05-08T16:31:48.488Z,101083.44
2023-05-08T16:34:50.318Z,101094.69
2023-05-08T16:37:52.187Z,101085.28
2023-05-08T16:40:53.933Z,101095.78
2023-05-08T16:43:55.776Z,101088.25
2023-05-08T16:46:57.553Z,101111.13
2023-05-08T16:49:59.677Z,101105.97
2023-05-08T16:53:02.207Z,101109.50
2023-05-08T16:56:05.380Z,101060.19
2023-05-08T16:59:07.176Z,101114.34
2023-05-08T17:02:09.117Z,101127.78
2023-05-08T17:05:11.603Z,101120.88
2023-05-08T17:08:13.682Z,101137.75
2023-05-08T17:11:15.519Z,101154.59
2023-05-08T17:14:17.295Z,101125.75
2023-05-08T17:17:19.079Z,101121.56
2023-05-08T17:20:21.440Z,101154.72
2023-05-08T17:23:23.215Z,101126.09
2023-05-08T17:26:24.889Z,101103.69
2023-05-08T17:29:26.747Z,101162.22
2023-05-08T17:32:28.514Z,101157.00
2023-05-08T17:35:30.353Z,101162.22
2023-05-08T17:38:32.212Z,101171.88
2023-05-08T17:41:34.028Z,101158.09
2023-05-08T17:44:37.416Z,101162.72
2023-05-08T17:47:40.252Z,101177.72
2023-05-08T17:50:43.540Z,101179.50
2023-05-08T17:53:45.350Z,101175.97
2023-05-08T17:56:48.622Z,101130.00
2023-05-08T17:59:50.877Z,101172.84
2023-05-08T18:02:52.737Z,101162.31
2023-05-08T18:05:54.620Z,101177.28
2023-05-08T18:08:56.379Z,101179.13
2023-05-08T18:12:02.383Z,101186.16
2023-05-08T18:15:08.208Z,101181.00
2023-05-08T18:18:10.027Z,101181.06
2023-05-08T18:21:11.863Z,101173.25
2023-05-08T18:24:13.650Z,101187.25
2023-05-08T18:27:15.630Z,101141.91
2023-05-08T18:30:17.604Z,101193.34
2023-05-08T18:33:19.526Z,101202.13
2023-05-08T18:36:21.380Z,101204.81
2023-05-08T18:39:23.234Z,101220.59
2023-05-08T18:42:25.078Z,101200.50
2023-05-08T18:45:26.977Z,101188.25
2023-05-08T18:48:32.041Z,101216.97
2023-05-08T18:51:35.126Z,101216.06
2023-05-08T18:54:37.230Z,101239.66
2023-05-08T18:57:39.042Z,101230.97
2023-05-08T19:00:41.060Z,101234.50
2023-05-08T19:03:43.148Z,101220.56
2023-05-08T19:06:45.222Z,101228.41
2023-05-08T19:09:47.009Z,101214.44
2023-05-08T19:12:50.879Z,101239.75
2023-05-08T19:15:54.297Z,101224.03
2023-05-08T19:18:56.090Z,101224.06
2023-05-08T19:21:59.137Z,101238.84
2023-05-08T19:25:00.941Z,101224.84
2023-05-08T19:28:04.207Z,101238.00
2023-05-08T19:31:05.943Z,101227.53
2023-05-08T19:34:07.718Z,101227.53
2023-05-08T19:37:09.549Z,101201.41
2023-05-08T19:40:11.814Z,101227.53
2023-05-08T19:43:13.629Z,101230.09
2023-05-08T19:46:15.923Z,101218.75
2023-05-08T19:49:17.768Z,101216.09
2023-05-08T19:52:20.041Z,101203.84
2023-05-08T19:55:21.813Z,101219.59
2023-05-08T19:58:23.705Z,101216.13
2023-05-08T20:01:25.613Z,101213.53
2023-05-08T20:04:27.511Z,101214.41
2023-05-08T20:07:29.414Z,101210.03
2023-05-08T20:10:31.299Z,101193.47
2023-05-08T20:13:33.335Z,101194.34
2023-05-08T20:16:35.444Z,101210.91
2023-05-08T20:19:38.969Z,101203.06
2023-05-08T20:22:40.819Z,101208.31
2023-05-08T20:25:48.834Z,101219.72
2023-05-08T20:28:50.698Z,101227.53
2023-05-08T20:31:53.243Z,101218.00
2023-05-08T20:34:55.188Z,101183.03
2023-05-08T20:37:57.008Z,101224.06
2023-05-08T20:41:00.877Z,101210.16
2023-05-08T20:44:03.105Z,101231.13
2023-05-08T20:47:04.943Z,101153.47
2023-05-08T20:50:07.387Z,101229.41
2023-05-08T20:53:09.088Z,101231.16
2023-05-08T20:56:11.003Z,101198.91
2023-05-08T20:59:14.120Z,101220.69
2023-05-08T21:02:15.807Z,101210.19
2023-05-08T21:05:18.667Z,101219.78
2023-05-08T21:08:25.163Z,101211.91
2023-05-08T21:11:26.901Z,101211.88
2023-05-08T21:14:28.613Z,101114.16
2023-05-08T21:17:30.408Z,101224.09
2023-05-08T21:20:39.352Z,101223.25
2023-05-08T21:23:41.409Z,101204.06
2023-05-08T21:26:43.518Z,101227.66
2023-05-08T21:29:45.682Z,101225.03
2023-05-08T21:32:47.580Z,101219.81
2023-05-08T21:35:49.315Z,101213.69
2023-05-08T21:38:52.704Z,101211.94
2023-05-08T21:41:54.405Z,101214.56
2023-05-08T21:44:56.844Z,101135.25
2023-05-08T21:47:59.801Z,101249.53
2023-05-08T21:51:02.009Z,101246.88
2023-05-08T21:54:03.939Z,101239.00
2023-05-08T21:57:07.555Z,101232.94
2023-05-08T22:00:09.897Z,101225.09
2023-05-08T22:03:21.364Z,101238.19
2023-05-08T22:06:23.205Z,101234.72
2023-05-08T22:09:24.967Z,101232.09
2023-05-08T22:12:26.784Z,101226.97
2023-05-08T22:15:30.772Z,101244.41
2023-05-08T22:18:32.885Z,101160.66
2023-05-08T22:21:34.764Z,101210.41
2023-05-08T22:24:36.720Z,101212.16
2023-05-08T22:27:38.931Z,101224.38
2023-05-08T22:30:40.782Z,101214.78
2023-05-08T22:33:42.507Z,101213.94
2023-05-08T22:36:44.307Z,101206.97
2023-05-08T22:39:46.086Z,101179.06
2023-05-08T22:42:48.257Z,101213.97
2023-05-08T22:45:50.386Z,101212.22
2023-05-08T22:48:55.021Z,101213.13
2023-05-08T22:51:56.959Z,101214.00
2023-05-08T22:54:58.666Z,101214.91
2023-05-08T22:58:03.707Z,101224.56
2023-05-08T23:01:06.158Z,101154.72
2023-05-08T23:04:08.119Z,101200.13
2023-05-08T23:07:09.850Z,101194.88
2023-05-08T23:10:11.786Z,101201.91
2023-05-08T23:13:13.746Z,101219.41
2023-05-08T23:16:15.658Z,101171.34
2023-05-08T23:19:17.413Z,101219.41
2023-05-08T23:22:19.225Z,101210.63
2023-05-08T23:25:20.965Z,101202.75
2023-05-08T23:28:22.712Z,101222.81
2023-05-08T23:31:24.422Z,101207.97
2023-05-08T23:34:26.331Z,101207.09
2023-05-08T23:37:28.197Z,101215.84
2023-05-08T23:40:29.966Z,101217.63
2023-05-08T23:43:32.126Z,101218.50
2023-05-08T23:46:34.422Z,101203.66
2023-05-08T23:49:36.467Z,101213.25
2023-05-08T23:52:38.265Z,101215.03
2023-05-08T23:55:40.131Z,101216.78
2023-05-08T23:58:42.013Z,101198.47
